Time;durP1;ratioP1;P1;durP2;ratioP2;P2;SDS_P1;SDS_P2;PMS_P1;PMS_P2;Temp;Humidity;BMP_temperature;BMP_pressure;BME280_temperature;BME280_humidity;BME280_pressure;Samples;Min_cycle;Max_cycle;Signal;HPM_P1;HPM_P2
2023/01/18 00:01:57;;;;;;;4.95;2.40;;;0.70;99.90;;;;;;4963414;28;20042;-56
2023/01/18 00:04:22;;;;;;;5.82;2.70;;;0.70;99.90;;;;;;4986838;23;20046;-61
2023/01/18 00:06:48;;;;;;;5.07;2.65;;;0.60;99.90;;;;;;4960022;28;20556;-61
2023/01/18 00:09:14;;;;;;;4.85;2.53;;;0.60;99.90;;;;;;4961260;28;20055;-61
2023/01/18 00:11:39;;;;;;;6.22;2.53;;;0.50;99.90;;;;;;4973156;28;20042;-61
2023/01/18 00:14:06;;;;;;;8.10;2.55;;;0.50;99.90;;;;;;4986972;28;20057;-61
2023/01/18 00:16:32;;;;;;;6.43;2.30;;;0.50;99.90;;;;;;4965203;28;20181;-61
2023/01/18 00:18:58;;;;;;;5.65;2.30;;;0.50;99.90;;;;;;4990798;28;20495;-61
2023/01/18 00:21:25;;;;;;;5.93;2.78;;;0.50;99.90;;;;;;4992286;28;20396;-62
2023/01/18 00:23:52;;;;;;;7.07;2.50;;;0.50;99.90;;;;;;4990041;28;20520;-61
2023/01/18 00:26:18;;;;;;;4.25;2.30;;;0.50;99.90;;;;;;4963549;28;20058;-61
2023/01/18 00:28:44;;;;;;;5.07;2.63;;;0.40;99.90;;;;;;5001024;28;20125;-61
2023/01/18 00:31:19;;;;;;;3.97;2.30;;;0.40;99.90;;;;;;4999070;28;20141;-61
2023/01/18 00:33:46;;;;;;;6.38;2.50;;;0.40;99.90;;;;;;4985230;28;20559;-61
2023/01/18 00:36:14;;;;;;;8.38;2.53;;;0.40;99.90;;;;;;5000305;28;20057;-61
2023/01/18 00:38:40;;;;;;;6.78;2.42;;;0.40;99.90;;;;;;4979825;28;20058;-61
2023/01/18 00:41:05;;;;;;;5.38;2.47;;;0.40;99.90;;;;;;4984403;28;21441;-61
2023/01/18 00:43:40;;;;;;;4.88;2.40;;;0.30;99.90;;;;;;4969712;28;20506;-61
2023/01/18 00:46:15;;;;;;;7.15;2.67;;;0.30;99.90;;;;;;4981029;28;20038;-61
2023/01/18 00:48:42;;;;;;;5.22;2.63;;;0.20;99.90;;;;;;4976752;28;20125;-61
2023/01/18 00:51:11;;;;;;;7.65;2.55;;;0.20;99.90;;;;;;5000387;28;20532;-61
2023/01/18 00:53:39;;;;;;;5.60;3.05;;;0.20;99.90;;;;;;4986684;28;20408;-61
2023/01/18 00:56:10;;;;;;;6.18;2.40;;;0.20;99.90;;;;;;4985467;28;20045;-61
2023/01/18 00:58:37;;;;;;;5.43;2.95;;;0.20;99.90;;;;;;5006509;28;20044;-61
2023/01/18 01:01:03;;;;;;;6.95;2.63;;;0.10;99.90;;;;;;4971225;28;20353;-61
2023/01/18 01:06:42;;;;;;;6.05;2.20;;;0.10;99.90;;;;;;4954891;28;20034;-61
2023/01/18 01:09:00;;;;;;;7.70;2.15;;;0.10;99.90;;;;;;4963582;28;20467;-61
2023/01/18 01:11:25;;;;;;;3.70;2.10;;;0.10;99.90;;;;;;4984968;28;20037;-61
2023/01/18 01:27:32;;;;;;;7.55;2.17;;;0.30;99.90;;;;;;4998900;28;20046;-61
2023/01/18 01:29:57;;;;;;;8.85;2.50;;;0.30;99.90;;;;;;4987792;28;20048;-61
2023/01/18 01:32:23;;;;;;;3.53;1.90;;;0.30;99.90;;;;;;4971929;28;20448;-61
2023/01/18 01:34:49;;;;;;;7.25;2.22;;;0.30;99.90;;;;;;4972266;28;20034;-61
2023/01/18 01:37:15;;;;;;;4.28;2.20;;;0.30;99.90;;;;;;4981301;28;20061;-61
2023/01/18 01:39:40;;;;;;;4.65;2.40;;;0.30;99.90;;;;;;4982238;28;20481;-61
2023/01/18 01:42:12;;;;;;;5.22;2.20;;;0.30;99.90;;;;;;4988827;28;20128;-61
2023/01/18 01:44:43;;;;;;;6.72;2.25;;;0.30;99.90;;;;;;4984712;28;20572;-61
2023/01/18 01:47:43;;;;;;;7.75;2.60;;;0.30;99.90;;;;;;4992046;28;20096;-61
2023/01/18 01:50:17;;;;;;;6.35;2.55;;;0.40;99.90;;;;;;4931688;28;20053;-61
2023/01/18 01:52:44;;;;;;;8.70;2.78;;;0.40;99.90;;;;;;4994024;28;20212;-61
2023/01/18 01:55:33;;;;;;;4.88;2.20;;;0.40;99.90;;;;;;4998595;28;20285;-61
2023/01/18 01:58:08;;;;;;;8.25;2.85;;;0.40;99.90;;;;;;4978662;28;20030;-61
2023/01/18 02:00:34;;;;;;;7.95;2.60;;;0.40;99.90;;;;;;4957108;28;20049;-61
2023/01/18 02:03:06;;;;;;;5.72;2.00;;;0.40;99.90;;;;;;4959390;28;20043;-61
2023/01/18 02:05:38;;;;;;;4.88;2.50;;;0.40;99.90;;;;;;4985034;28;20056;-61
2023/01/18 02:08:10;;;;;;;8.40;1.92;;;0.50;99.90;;;;;;4991984;28;20042;-61
2023/01/18 02:10:37;;;;;;;3.83;1.88;;;0.50;99.90;;;;;;4966860;28;20149;-60
2023/01/18 02:13:08;;;;;;;5.28;2.13;;;0.50;99.90;;;;;;4988431;28;20113;-61
2023/01/18 02:16:07;;;;;;;6.40;2.95;;;0.50;99.90;;;;;;4983497;28;20439;-61
2023/01/18 02:18:40;;;;;;;4.03;2.25;;;0.50;99.90;;;;;;4981544;28;20048;-61
2023/01/18 02:21:17;;;;;;;5.38;2.30;;;0.60;99.90;;;;;;4966477;28;20072;-60
2023/01/18 02:23:52;;;;;;;3.45;2.33;;;0.60;99.90;;;;;;4996188;28;20046;-61
2023/01/18 02:26:55;;;;;;;8.48;3.03;;;0.60;99.90;;;;;;4982507;28;20046;-61
2023/01/18 02:29:27;;;;;;;5.05;1.77;;;0.60;99.90;;;;;;4990262;28;20480;-61
2023/01/18 02:32:10;;;;;;;3.78;1.60;;;0.60;99.90;;;;;;4987803;28;20391;-61
2023/01/18 02:34:47;;;;;;;6.00;2.05;;;0.60;99.90;;;;;;4988275;28;20193;-61
2023/01/18 02:37:20;;;;;;;4.63;1.75;;;0.60;99.90;;;;;;4987515;28;20136;-61
2023/01/18 02:40:10;;;;;;;4.70;1.80;;;0.70;99.90;;;;;;4977699;28;20420;-61
2023/01/18 02:48:13;;;;;;;7.60;1.70;;;0.70;99.90;;;;;;4987709;28;20517;-61
2023/01/18 02:50:39;;;;;;;4.72;2.10;;;0.70;99.90;;;;;;4972994;28;20131;-61
2023/01/18 02:53:05;;;;;;;6.32;2.30;;;0.60;99.90;;;;;;4984279;28;20097;-61
2023/01/18 02:55:33;;;;;;;6.13;2.10;;;0.70;99.90;;;;;;4971584;28;20048;-61
2023/01/18 02:58:22;;;;;;;5.35;2.00;;;0.70;99.90;;;;;;4977803;28;20034;-61
2023/01/18 03:01:08;;;;;;;4.97;1.67;;;0.70;99.90;;;;;;4976395;28;20048;-61
2023/01/18 03:03:34;;;;;;;4.47;1.73;;;0.70;99.90;;;;;;4963409;28;20042;-61
2023/01/18 03:06:04;;;;;;;6.30;2.40;;;0.70;99.90;;;;;;4981922;28;20050;-61
2023/01/18 03:08:50;;;;;;;9.13;2.67;;;0.60;99.90;;;;;;4987476;28;20183;-61
2023/01/18 03:11:20;;;;;;;3.83;1.85;;;0.60;99.90;;;;;;4984763;28;20026;-61
2023/01/18 03:13:54;;;;;;;6.85;1.90;;;0.60;99.90;;;;;;4988337;28;20324;-61
2023/01/18 03:16:23;;;;;;;4.60;1.73;;;0.60;99.90;;;;;;4984815;28;20038;-61
2023/01/18 03:21:56;;;;;;;9.43;2.30;;;0.50;99.90;;;;;;4984804;28;20417;-61
2023/01/18 03:24:22;;;;;;;5.47;2.22;;;0.50;99.90;;;;;;4983621;28;20046;-62
2023/01/18 03:26:51;;;;;;;6.38;2.45;;;0.50;99.90;;;;;;4983721;28;20057;-62
2023/01/18 03:35:08;;;;;;;4.22;2.17;;;0.50;99.90;;;;;;4980392;28;20049;-62
2023/01/18 03:37:38;;;;;;;4.18;2.40;;;0.50;99.90;;;;;;4979708;28;20042;-62
2023/01/18 03:40:10;;;;;;;4.60;1.97;;;0.50;99.90;;;;;;4967159;28;20099;-61
2023/01/18 03:42:54;;;;;;;5.68;2.60;;;0.50;99.90;;;;;;4981916;28;20124;-61
2023/01/18 03:45:32;;;;;;;8.70;2.60;;;0.50;99.90;;;;;;4972297;28;20049;-61
2023/01/18 03:47:58;;;;;;;5.45;1.98;;;0.50;99.90;;;;;;4986793;28;20660;-61
2023/01/18 03:51:01;;;;;;;5.60;2.30;;;0.50;99.90;;;;;;5003501;28;20117;-61
2023/01/18 03:53:41;;;;;;;6.80;2.60;;;0.50;99.90;;;;;;4987784;28;20044;-61
2023/01/18 03:56:21;;;;;;;4.85;2.08;;;0.50;99.90;;;;;;4971797;28;20043;-63
2023/01/18 03:58:49;;;;;;;7.03;2.40;;;0.60;99.90;;;;;;4986646;28;20048;-61
2023/01/18 04:01:15;;;;;;;4.78;2.53;;;0.50;99.90;;;;;;4979997;28;20154;-61
2023/01/18 04:03:41;;;;;;;4.55;2.13;;;0.60;99.90;;;;;;4991323;28;20045;-61
2023/01/18 04:06:07;;;;;;;6.55;2.40;;;0.60;99.90;;;;;;4957196;28;20066;-61
2023/01/18 04:08:33;;;;;;;5.70;2.78;;;0.60;99.90;;;;;;4988737;28;20047;-61
2023/01/18 04:10:58;;;;;;;26.40;4.78;;;0.60;99.90;;;;;;4964677;28;20044;-61
2023/01/18 04:13:24;;;;;;;7.53;3.05;;;0.50;99.90;;;;;;4960898;28;20424;-61
2023/01/18 04:15:50;;;;;;;7.13;3.38;;;0.60;99.90;;;;;;4985222;28;20034;-61
2023/01/18 04:18:15;;;;;;;7.60;3.10;;;0.60;99.90;;;;;;4980362;28;20396;-62
2023/01/18 04:20:41;;;;;;;7.70;3.17;;;0.60;99.90;;;;;;4983657;28;20460;-61
2023/01/18 04:23:07;;;;;;;10.73;3.03;;;0.60;99.90;;;;;;4977135;28;20113;-61
2023/01/18 04:25:33;;;;;;;5.90;3.20;;;0.60;99.90;;;;;;4974090;28;20401;-61
2023/01/18 04:27:58;;;;;;;10.10;3.67;;;0.60;99.90;;;;;;4982588;28;20435;-61
2023/01/18 04:30:24;;;;;;;9.07;4.10;;;0.70;99.90;;;;;;4968009;28;20042;-61
2023/01/18 04:32:50;;;;;;;10.38;3.78;;;0.70;99.90;;;;;;4969044;28;20042;-62
2023/01/18 04:35:15;;;;;;;10.30;3.92;;;0.70;99.90;;;;;;4988573;28;20054;-61
2023/01/18 04:37:41;;;;;;;9.23;4.18;;;0.70;99.90;;;;;;4991491;28;20081;-61
2023/01/18 04:40:07;;;;;;;7.90;4.35;;;0.80;99.90;;;;;;5002857;28;20046;-61
2023/01/18 04:42:33;;;;;;;9.60;4.10;;;0.80;99.90;;;;;;4987427;28;20044;-62
2023/01/18 04:44:59;;;;;;;9.82;4.15;;;0.80;99.90;;;;;;4985595;28;20053;-61
2023/01/18 04:47:27;;;;;;;7.53;3.80;;;0.80;99.90;;;;;;4969077;28;20455;-62
2023/01/18 04:49:56;;;;;;;10.30;4.00;;;0.80;99.90;;;;;;5005900;28;20495;-61
2023/01/18 04:52:22;;;;;;;8.45;3.58;;;0.80;99.90;;;;;;4985605;28;20080;-61
2023/01/18 04:54:48;;;;;;;8.73;4.03;;;0.70;99.90;;;;;;4987105;28;20065;-61
2023/01/18 04:57:14;;;;;;;7.45;4.00;;;0.70;99.90;;;;;;4987201;28;20496;-62
2023/01/18 04:59:40;;;;;;;10.05;4.95;;;0.70;99.90;;;;;;4965597;28;20044;-61
2023/01/18 05:02:06;;;;;;;7.80;4.57;;;0.70;99.90;;;;;;4969810;28;20046;-61
2023/01/18 05:04:32;;;;;;;9.05;4.38;;;0.70;99.90;;;;;;4986706;28;20169;-61
2023/01/18 05:06:57;;;;;;;9.98;4.72;;;0.60;99.90;;;;;;4978510;28;20038;-62
2023/01/18 05:09:23;;;;;;;12.80;5.40;;;0.70;99.90;;;;;;4989261;28;20046;-61
2023/01/18 05:11:49;;;;;;;9.43;4.72;;;0.60;99.90;;;;;;4970365;28;20059;-61
2023/01/18 05:14:15;;;;;;;11.75;5.05;;;0.60;99.90;;;;;;4972999;28;20034;-61
2023/01/18 05:16:40;;;;;;;10.13;5.35;;;0.60;99.90;;;;;;4983346;28;20107;-62
2023/01/18 05:19:06;;;;;;;12.20;4.93;;;0.70;99.90;;;;;;4954866;28;20076;-62
2023/01/18 05:21:32;;;;;;;10.43;4.80;;;0.60;99.90;;;;;;4984624;28;20580;-62
2023/01/18 05:23:57;;;;;;;13.63;4.90;;;0.70;99.90;;;;;;4984796;28;20147;-61
2023/01/18 05:26:23;;;;;;;10.20;4.70;;;0.60;99.90;;;;;;4982610;28;20050;-62
2023/01/18 05:28:54;;;;;;;9.77;4.22;;;0.60;99.90;;;;;;4985788;28;20328;-61
2023/01/18 05:31:20;;;;;;;11.00;4.90;;;0.60;99.90;;;;;;4974462;28;20096;-61
2023/01/18 05:33:46;;;;;;;11.38;5.38;;;0.60;99.90;;;;;;4951654;28;20050;-61
2023/01/18 05:36:12;;;;;;;13.50;4.28;;;0.60;99.90;;;;;;4997433;28;20037;-61
2023/01/18 05:38:37;;;;;;;9.48;4.13;;;0.60;99.90;;;;;;5006578;28;20433;-61
2023/01/18 05:41:04;;;;;;;8.27;4.05;;;0.60;99.90;;;;;;4987603;28;20077;-61
2023/01/18 05:43:30;;;;;;;6.63;3.95;;;0.70;99.90;;;;;;4991968;28;20503;-61
2023/01/18 05:45:56;;;;;;;7.22;3.97;;;0.70;99.90;;;;;;4986778;28;20412;-61
2023/01/18 05:48:22;;;;;;;10.57;5.07;;;0.70;99.90;;;;;;4987394;28;20386;-62
2023/01/18 05:50:49;;;;;;;8.10;3.90;;;0.70;99.90;;;;;;4985201;28;20034;-61
2023/01/18 05:53:17;;;;;;;11.93;3.88;;;0.70;99.90;;;;;;4986019;28;20041;-61
2023/01/18 05:55:51;;;;;;;7.82;4.00;;;0.70;99.90;;;;;;5001303;28;20447;-61
2023/01/18 05:58:17;;;;;;;12.32;4.20;;;0.70;99.90;;;;;;4969523;28;20041;-62
2023/01/18 06:00:43;;;;;;;7.65;3.63;;;0.80;99.90;;;;;;4991432;28;20057;-61
2023/01/18 06:03:09;;;;;;;9.07;3.78;;;0.80;99.90;;;;;;5000974;28;20045;-61
2023/01/18 06:05:34;;;;;;;10.40;3.83;;;0.70;99.90;;;;;;4966444;23;20042;-56
2023/01/18 06:08:01;;;;;;;10.70;3.80;;;0.70;99.90;;;;;;4967909;28;20046;-55
2023/01/18 06:10:27;;;;;;;10.43;3.85;;;0.80;99.90;;;;;;4959948;28;20038;-55
2023/01/18 06:12:52;;;;;;;9.70;4.00;;;0.80;99.90;;;;;;4997533;28;20045;-56
2023/01/18 06:15:21;;;;;;;7.45;4.00;;;0.70;99.90;;;;;;4977993;28;20531;-57
2023/01/18 06:17:47;;;;;;;7.88;3.67;;;0.70;99.90;;;;;;4995803;28;20045;-55
2023/01/18 06:20:13;;;;;;;8.82;3.90;;;0.70;99.90;;;;;;4999311;28;20038;-57
2023/01/18 06:22:39;;;;;;;10.90;4.38;;;0.80;99.90;;;;;;5010668;28;20518;-55
2023/01/18 06:25:07;;;;;;;10.25;3.97;;;0.70;99.90;;;;;;5008224;28;20050;-56
2023/01/18 06:27:33;;;;;;;8.25;3.45;;;0.70;99.90;;;;;;4985837;28;20056;-56
2023/01/18 06:29:58;;;;;;;9.20;3.88;;;0.70;99.90;;;;;;5001061;28;20477;-54
2023/01/18 06:32:24;;;;;;;10.35;3.40;;;0.70;99.90;;;;;;4972316;28;20038;-53
2023/01/18 06:34:50;;;;;;;9.77;4.03;;;0.70;99.90;;;;;;4991313;28;20491;-54
2023/01/18 06:37:16;;;;;;;9.45;3.40;;;0.70;99.90;;;;;;4995183;28;20124;-55
2023/01/18 06:39:41;;;;;;;7.90;3.95;;;0.70;99.90;;;;;;4984727;28;20038;-55
2023/01/18 06:42:07;;;;;;;11.52;5.00;;;0.60;99.90;;;;;;4990823;28;20355;-53
2023/01/18 06:44:33;;;;;;;8.07;4.07;;;0.60;99.90;;;;;;4981221;28;20069;-55
2023/01/18 06:46:58;;;;;;;10.23;4.15;;;0.60;99.90;;;;;;5007992;28;20037;-56
2023/01/18 06:49:24;;;;;;;8.20;4.07;;;0.60;99.90;;;;;;4995701;28;20133;-56
2023/01/18 06:51:50;;;;;;;11.18;5.50;;;0.60;99.90;;;;;;4995923;28;20046;-53
2023/01/18 06:54:16;;;;;;;9.77;4.53;;;0.60;99.90;;;;;;4982157;28;20048;-53
2023/01/18 06:56:41;;;;;;;8.65;4.35;;;0.50;99.90;;;;;;4985759;28;20049;-52
2023/01/18 06:59:07;;;;;;;9.05;3.72;;;0.50;99.90;;;;;;4964538;28;20107;-55
2023/01/18 07:01:33;;;;;;;9.70;4.95;;;0.40;99.90;;;;;;4970580;28;20057;-56
2023/01/18 07:03:59;;;;;;;7.90;4.43;;;0.50;99.90;;;;;;4993311;28;20048;-54
2023/01/18 07:06:25;;;;;;;9.75;3.50;;;0.40;99.90;;;;;;4985042;28;20084;-55
2023/01/18 07:08:50;;;;;;;8.88;3.97;;;0.40;99.90;;;;;;4988580;28;20038;-56
2023/01/18 07:11:17;;;;;;;9.00;4.60;;;0.40;99.90;;;;;;4979892;28;20638;-56
2023/01/18 07:13:45;;;;;;;11.18;5.05;;;0.50;99.90;;;;;;5001312;28;20061;-53
2023/01/18 07:16:19;;;;;;;11.55;4.40;;;0.40;99.90;;;;;;5008544;28;20379;-53
2023/01/18 07:18:47;;;;;;;7.85;3.97;;;0.40;99.90;;;;;;4995870;28;20057;-56
2023/01/18 07:21:14;;;;;;;12.57;4.85;;;0.40;99.90;;;;;;4997867;28;20430;-55
2023/01/18 07:23:40;;;;;;;8.43;4.53;;;0.40;99.90;;;;;;4980876;28;20046;-55
2023/01/18 07:26:15;;;;;;;10.15;5.30;;;0.40;99.90;;;;;;4983826;28;20061;-56
2023/01/18 07:28:41;;;;;;;9.27;6.10;;;0.30;99.90;;;;;;4986697;28;20415;-56
2023/01/18 07:31:07;;;;;;;13.35;6.03;;;0.30;99.90;;;;;;4986089;28;20042;-55
2023/01/18 07:33:34;;;;;;;11.98;6.22;;;0.30;99.90;;;;;;4996088;28;20034;-55
2023/01/18 07:36:00;;;;;;;10.18;6.00;;;0.30;99.90;;;;;;4997011;28;20049;-55
2023/01/18 07:38:26;;;;;;;11.00;6.32;;;0.30;99.90;;;;;;4998913;28;20041;-52
2023/01/18 07:41:19;;;;;;;10.90;6.70;;;0.30;99.90;;;;;;4987384;28;20294;-55
2023/01/18 07:43:45;;;;;;;10.75;6.80;;;0.30;99.90;;;;;;4984003;28;20046;-55
2023/01/18 07:46:14;;;;;;;12.50;7.05;;;0.40;99.90;;;;;;4986810;28;20099;-55
2023/01/18 07:48:40;;;;;;;10.95;6.88;;;0.30;99.90;;;;;;4985561;28;20038;-56
2023/01/18 07:51:07;;;;;;;17.63;6.97;;;0.40;99.90;;;;;;4998790;28;20042;-56
2023/01/18 07:53:34;;;;;;;11.93;6.37;;;0.30;99.90;;;;;;4982589;28;20037;-56
2023/01/18 07:56:02;;;;;;;10.68;6.35;;;0.40;99.90;;;;;;4987374;28;20117;-56
2023/01/18 07:58:28;;;;;;;11.00;6.10;;;0.40;99.90;;;;;;4983265;28;20053;-54
2023/01/18 08:00:54;;;;;;;14.38;6.68;;;0.40;99.90;;;;;;5001384;28;20045;-52
2023/01/18 08:03:20;;;;;;;10.55;6.45;;;0.40;99.90;;;;;;4985089;28;20089;-56
2023/01/18 08:05:46;;;;;;;11.43;6.53;;;0.40;99.90;;;;;;5007691;28;20050;-54
2023/01/18 08:08:15;;;;;;;13.80;6.73;;;0.40;99.90;;;;;;4988664;28;20039;-52
2023/01/18 08:10:41;;;;;;;11.70;6.10;;;0.40;99.90;;;;;;4989746;28;20678;-56
2023/01/18 08:13:09;;;;;;;13.23;7.45;;;0.50;99.90;;;;;;4983315;28;20046;-56
2023/01/18 08:15:35;;;;;;;10.70;6.57;;;0.50;99.90;;;;;;4976766;28;20576;-55
2023/01/18 08:18:05;;;;;;;10.95;6.55;;;0.50;99.90;;;;;;5005252;28;20046;-55
2023/01/18 08:20:31;;;;;;;11.88;6.07;;;0.50;99.90;;;;;;5005326;28;20042;-55
2023/01/18 08:22:59;;;;;;;9.97;6.03;;;0.60;99.90;;;;;;4990134;28;20419;-53
2023/01/18 08:25:30;;;;;;;9.82;6.35;;;0.60;99.90;;;;;;4974544;28;20137;-53
2023/01/18 08:27:57;;;;;;;11.60;5.88;;;0.60;99.90;;;;;;5005532;28;20058;-55
2023/01/18 08:30:26;;;;;;;9.77;6.18;;;0.60;99.90;;;;;;5003971;28;20046;-55
2023/01/18 08:32:55;;;;;;;15.63;6.78;;;0.70;99.90;;;;;;5002704;28;20038;-54
2023/01/18 08:35:21;;;;;;;12.95;7.40;;;0.70;99.90;;;;;;5006319;28;20038;-55
2023/01/18 08:37:47;;;;;;;13.27;6.55;;;0.70;99.90;;;;;;4986237;28;20065;-52
2023/01/18 08:40:13;;;;;;;11.07;5.85;;;0.70;99.90;;;;;;4994721;28;20135;-55
2023/01/18 08:42:38;;;;;;;11.70;6.28;;;0.70;99.90;;;;;;4970728;28;20428;-54
2023/01/18 08:45:05;;;;;;;11.55;6.30;;;0.70;99.90;;;;;;5009322;28;20041;-52
2023/01/18 08:47:31;;;;;;;12.63;5.95;;;0.70;99.90;;;;;;4967845;28;20050;-54
2023/01/18 08:49:56;;;;;;;13.27;6.32;;;0.80;99.90;;;;;;4977214;28;20181;-56
2023/01/18 08:52:22;;;;;;;11.05;6.63;;;0.80;99.90;;;;;;5008881;28;20049;-55
2023/01/18 08:54:48;;;;;;;10.85;6.32;;;0.80;99.90;;;;;;4990398;28;20038;-56
2023/01/18 08:57:13;;;;;;;11.13;6.03;;;0.80;99.90;;;;;;5006194;28;20449;-56
2023/01/18 08:59:39;;;;;;;9.95;6.38;;;1.00;99.90;;;;;;4992026;28;20044;-56
2023/01/18 09:02:05;;;;;;;10.38;7.05;;;0.90;99.90;;;;;;4994768;28;20473;-56
2023/01/18 09:04:30;;;;;;;13.18;6.30;;;1.00;99.90;;;;;;4981002;28;20044;-56
2023/01/18 09:06:57;;;;;;;11.80;5.85;;;1.00;99.90;;;;;;4999402;28;20121;-56
2023/01/18 09:09:22;;;;;;;11.27;6.55;;;1.10;99.90;;;;;;4998979;28;20037;-55
2023/01/18 09:11:51;;;;;;;14.27;6.30;;;1.20;99.90;;;;;;4981998;28;20044;-54
2023/01/18 09:14:17;;;;;;;16.35;6.97;;;1.20;99.90;;;;;;4984682;28;20432;-55
2023/01/18 09:16:43;;;;;;;14.57;7.03;;;1.30;99.90;;;;;;4959154;28;20056;-53
2023/01/18 09:19:08;;;;;;;12.77;6.05;;;1.30;99.90;;;;;;5006207;28;20108;-55
2023/01/18 09:21:34;;;;;;;9.90;6.15;;;1.30;99.90;;;;;;4990813;28;20377;-56
2023/01/18 09:24:00;;;;;;;10.45;5.72;;;1.40;99.90;;;;;;4987724;28;20046;-55
2023/01/18 09:26:27;;;;;;;11.13;5.93;;;1.50;99.90;;;;;;4992267;28;20116;-54
2023/01/18 09:28:53;;;;;;;11.55;5.72;;;1.50;99.90;;;;;;4974519;28;20045;-53
2023/01/18 09:31:21;;;;;;;8.75;5.95;;;1.60;99.90;;;;;;5000806;28;20456;-56
2023/01/18 09:33:47;;;;;;;8.82;5.70;;;1.70;99.90;;;;;;4987575;28;20207;-56
2023/01/18 09:36:13;;;;;;;12.65;6.05;;;1.80;99.90;;;;;;4999950;28;20041;-56
2023/01/18 09:38:40;;;;;;;9.25;6.15;;;1.80;99.90;;;;;;4994332;28;20080;-56
2023/01/18 09:41:32;;;;;;;11.63;6.10;;;1.90;99.90;;;;;;4994920;28;20048;-57
2023/01/18 09:44:29;;;;;;;8.63;5.53;;;2.00;99.90;;;;;;4987140;28;20042;-56
2023/01/18 09:47:00;;;;;;;13.75;5.50;;;2.10;99.90;;;;;;4979251;28;20516;-54
2023/01/18 09:49:43;;;;;;;11.73;6.78;;;2.10;99.90;;;;;;4992983;28;20054;-57
2023/01/18 09:52:31;;;;;;;12.23;6.90;;;2.20;99.90;;;;;;5003460;28;20496;-56
2023/01/18 09:55:12;;;;;;;8.32;5.22;;;2.20;99.90;;;;;;4984022;28;20046;-56
2023/01/18 09:57:43;;;;;;;10.00;5.15;;;2.30;99.90;;;;;;5000780;28;20056;-54
2023/01/18 10:00:24;;;;;;;9.82;5.88;;;2.40;99.90;;;;;;4976495;28;20049;-56
2023/01/18 10:02:59;;;;;;;9.05;5.30;;;2.50;99.90;;;;;;4993434;28;20053;-54
2023/01/18 10:05:36;;;;;;;8.75;5.40;;;2.50;99.90;;;;;;4986683;28;20100;-56
2023/01/18 10:08:26;;;;;;;10.02;5.35;;;2.60;99.90;;;;;;4998650;28;20046;-56
2023/01/18 10:11:05;;;;;;;11.43;5.53;;;2.70;99.90;;;;;;4984986;28;20116;-57
2023/01/18 10:13:49;;;;;;;12.15;5.18;;;2.70;99.90;;;;;;4990094;28;20038;-55
2023/01/18 10:16:15;;;;;;;;;;;2.80;99.90;;;;;;4983014;28;20515;-57
2023/01/18 10:18:46;;;;;;;8.35;4.68;;;2.90;99.90;;;;;;4962953;28;19921;-55
2023/01/18 10:21:25;;;;;;;8.68;5.05;;;2.90;99.90;;;;;;4971736;28;20050;-57
2023/01/18 10:24:12;;;;;;;9.02;5.38;;;3.00;99.90;;;;;;4992252;28;20424;-56
2023/01/18 10:26:39;;;;;;;10.50;5.43;;;3.10;99.90;;;;;;5001927;28;20116;-57
2023/01/18 10:29:21;;;;;;;8.27;4.95;;;3.20;99.90;;;;;;4980349;28;20489;-57
2023/01/18 10:32:11;;;;;;;8.55;5.18;;;3.20;99.90;;;;;;4977720;28;20277;-56
2023/01/18 10:34:43;;;;;;;10.25;4.95;;;3.40;99.90;;;;;;4999601;28;20115;-57
2023/01/18 10:37:44;;;;;;;10.68;4.80;;;3.40;99.90;;;;;;4980026;28;20050;-56
2023/01/18 10:40:12;;;;;;;10.13;5.63;;;3.50;99.90;;;;;;4980886;28;20145;-57
2023/01/18 10:42:46;;;;;;;8.50;5.20;;;3.60;99.90;;;;;;4975784;28;20061;-57
2023/01/18 10:45:16;;;;;;;;;;;3.70;99.90;;;;;;4983696;28;20057;-56
2023/01/18 10:47:43;;;;;;;8.45;5.50;;;3.70;99.90;;;;;;4996904;28;19921;-58
2023/01/18 10:50:18;;;;;;;8.77;5.10;;;3.80;99.90;;;;;;4980293;28;20046;-57
2023/01/18 10:52:44;;;;;;;10.45;5.40;;;3.80;99.90;;;;;;4982350;28;20041;-57
2023/01/18 10:55:16;;;;;;;7.85;4.38;;;3.90;99.90;;;;;;4986778;28;20045;-56
2023/01/18 10:57:46;;;;;;;10.60;4.90;;;4.00;99.90;;;;;;4991638;28;20050;-56
2023/01/18 11:00:20;;;;;;;9.50;4.18;;;4.00;99.90;;;;;;4984234;28;20082;-57
2023/01/18 11:02:49;;;;;;;8.82;4.05;;;4.00;99.90;;;;;;4991117;28;20199;-57
2023/01/18 11:05:26;;;;;;;10.95;4.68;;;4.00;99.90;;;;;;4987671;28;20054;-57
2023/01/18 11:08:12;;;;;;;9.55;5.00;;;4.10;99.90;;;;;;4980187;28;20113;-56
2023/01/18 11:10:40;;;;;;;6.03;4.63;;;4.10;99.90;;;;;;4984847;28;20033;-57
2023/01/18 11:13:31;;;;;;;9.02;4.32;;;4.10;99.90;;;;;;5005624;28;20048;-56
2023/01/18 11:16:12;;;;;;;7.65;4.20;;;4.20;99.90;;;;;;4985703;28;20964;-57
2023/01/18 11:18:58;;;;;;;8.07;4.88;;;4.30;99.90;;;;;;4985316;28;20072;-58
2023/01/18 11:21:30;;;;;;;6.68;4.28;;;4.30;99.90;;;;;;4997931;28;20089;-57
2023/01/18 11:23:56;;;;;;;8.20;4.00;;;4.30;99.90;;;;;;4985519;28;20058;-57
2023/01/18 11:26:23;;;;;;;17.40;4.75;;;4.30;99.90;;;;;;5003881;28;20046;-56
2023/01/18 11:28:59;;;;;;;6.45;3.92;;;4.40;99.90;;;;;;4985683;28;20037;-56
2023/01/18 11:31:28;;;;;;;10.23;3.97;;;4.50;99.90;;;;;;4976400;28;20053;-56
2023/01/18 11:34:00;;;;;;;8.80;4.13;;;4.60;99.90;;;;;;4981263;28;20094;-58
2023/01/18 11:36:41;;;;;;;8.70;3.83;;;4.70;99.90;;;;;;4982300;28;20615;-57
2023/01/18 11:39:36;;;;;;;6.22;3.38;;;4.70;99.90;;;;;;4978251;28;20054;-58
2023/01/18 11:42:26;;;;;;;10.00;4.43;;;4.90;99.90;;;;;;4997049;28;20049;-58
2023/01/18 11:45:11;;;;;;;8.00;3.63;;;5.10;99.90;;;;;;4985155;28;20495;-58
2023/01/18 11:48:13;;;;;;;9.00;3.83;;;5.30;99.90;;;;;;4983163;28;20039;-57
2023/01/18 11:50:45;;;;;;;10.27;3.92;;;5.40;99.90;;;;;;4998302;28;20038;-56
2023/01/18 11:53:22;;;;;;;9.38;4.60;;;5.40;99.90;;;;;;4987417;28;20054;-58
2023/01/18 11:55:54;;;;;;;10.98;3.67;;;5.50;99.90;;;;;;4995096;28;20293;-56
2023/01/18 11:58:28;;;;;;;9.00;3.90;;;5.60;99.90;;;;;;5004410;28;20085;-57
2023/01/18 12:01:33;;;;;;;8.38;4.30;;;5.70;99.90;;;;;;4997115;28;20096;-56
2023/01/18 12:04:10;;;;;;;9.43;3.70;;;5.70;99.90;;;;;;4981446;28;20164;-58
2023/01/18 12:06:48;;;;;;;9.18;3.80;;;5.70;99.90;;;;;;4996881;28;20050;-57
2023/01/18 12:09:36;;;;;;;10.10;3.55;;;5.80;99.90;;;;;;5021677;23;20174;-62
2023/01/18 12:12:43;;;;;;;9.20;3.60;;;5.80;99.90;;;;;;4980794;28;20046;-62
2023/01/18 12:15:25;;;;;;;7.75;3.70;;;5.80;99.90;;;;;;4957853;28;20055;-61
2023/01/18 12:18:00;;;;;;;8.68;3.88;;;5.80;99.90;;;;;;4976933;28;20644;-61
2023/01/18 12:20:57;;;;;;;6.18;4.07;;;5.80;99.90;;;;;;4980983;28;20038;-61
2023/01/18 12:23:30;;;;;;;10.05;4.00;;;5.80;99.90;;;;;;4995681;28;20046;-61
2023/01/18 12:26:08;;;;;;;7.78;4.05;;;5.70;99.90;;;;;;4970257;28;20053;-62
2023/01/18 12:28:42;;;;;;;8.43;4.20;;;5.70;99.90;;;;;;4970086;28;20450;-61
2023/01/18 12:31:18;;;;;;;6.40;4.03;;;5.60;99.90;;;;;;4973350;28;20161;-62
2023/01/18 12:33:56;;;;;;;8.02;4.30;;;5.50;99.90;;;;;;4975532;28;20039;-62
2023/01/18 12:36:39;;;;;;;9.68;4.05;;;5.40;99.90;;;;;;4981316;28;20089;-62
2023/01/18 12:39:32;;;;;;;8.57;3.28;;;5.30;99.90;;;;;;4984502;28;20046;-62
2023/01/18 12:42:08;;;;;;;6.57;3.67;;;5.20;99.90;;;;;;4984251;28;20133;-60
2023/01/18 12:44:37;;;;;;;7.90;3.88;;;5.00;99.90;;;;;;4984521;28;20473;-62
2023/01/18 12:47:18;;;;;;;7.53;3.20;;;5.00;99.90;;;;;;4977991;28;20042;-62
2023/01/18 12:49:50;;;;;;;13.82;3.40;;;4.90;99.90;;;;;;4977649;28;20050;-61
2023/01/18 12:52:20;;;;;;;7.38;3.22;;;4.90;99.90;;;;;;4979706;28;20389;-59
2023/01/18 12:54:58;;;;;;;9.82;3.33;;;4.80;99.90;;;;;;4983008;28;20078;-63
2023/01/18 12:57:25;;;;;;;5.97;2.85;;;4.90;99.90;;;;;;4962346;28;20505;-61
2023/01/18 13:00:00;;;;;;;7.18;2.85;;;4.90;99.90;;;;;;4985111;28;20049;-62
2023/01/18 13:02:43;;;;;;;6.30;2.63;;;4.80;99.90;;;;;;4973257;28;20405;-62
2023/01/18 13:05:33;;;;;;;6.88;2.60;;;4.80;99.90;;;;;;4957230;28;20129;-61
2023/01/18 13:08:07;;;;;;;9.18;2.50;;;4.80;99.90;;;;;;4977437;28;20050;-61
2023/01/18 13:10:34;;;;;;;;;;;4.80;99.90;;;;;;4997345;28;20050;-60
2023/01/18 13:13:03;;;;;;;5.57;2.45;;;4.80;99.90;;;;;;4987285;28;19918;-61
2023/01/18 13:15:35;;;;;;;6.32;2.55;;;4.80;99.90;;;;;;4974238;28;20129;-61
2023/01/18 13:18:23;;;;;;;7.35;2.40;;;4.80;99.90;;;;;;4979344;28;20042;-62
2023/01/18 13:21:08;;;;;;;8.13;2.38;;;4.70;99.90;;;;;;4989458;28;20073;-61
2023/01/18 13:24:12;;;;;;;8.60;2.53;;;4.70;99.90;;;;;;4987892;28;20082;-61
2023/01/18 13:26:39;;;;;;;8.55;2.58;;;4.70;99.90;;;;;;4974902;28;20127;-62
2023/01/18 13:29:28;;;;;;;5.20;2.33;;;4.70;99.90;;;;;;4978274;28;20043;-62
2023/01/18 13:31:55;;;;;;;7.15;2.47;;;4.70;99.90;;;;;;4979123;28;20121;-62
2023/01/18 13:34:36;;;;;;;8.65;3.28;;;4.70;99.90;;;;;;4973801;28;20116;-61
2023/01/18 13:37:05;;;;;;;10.98;5.65;;;4.70;99.90;;;;;;4976607;28;20046;-61
2023/01/18 13:39:41;;;;;;;16.25;3.88;;;4.70;99.90;;;;;;4960547;28;20046;-61
2023/01/18 13:42:21;;;;;;;9.48;3.50;;;4.70;99.90;;;;;;4983056;28;20556;-62
2023/01/18 13:44:48;;;;;;;8.23;2.70;;;4.70;99.90;;;;;;4986330;28;20061;-59
2023/01/18 13:47:44;;;;;;;5.88;2.40;;;4.70;99.90;;;;;;4974626;28;20401;-62
2023/01/18 13:50:33;;;;;;;10.57;2.78;;;4.70;99.90;;;;;;4972301;28;20628;-63